Hewitt, Minnesota
Current Conditions -  °F | °C
As of 6:15 PM on Wednesday 26 Nov 2014 (Local Time) from KADC Reporting Station
Clear Clear  
Wind Chill: -15°   Ceiling: Unl
Heat Index:   Visibility: 10mi
Dew Point: -6°   Wind: 12mph
Humidity: 72%   Direction: 320°NW
Pressure: 30.37"   Gusts: 17mph
Location:  46.33°N, 95.09°W
Report Text: KADC 270015Z AUTO 32010G15KT 10SM CLR M17/M21 A3037 RMK AO2
Loading
Personal Weather Stations






























Interactive Weather Map New forecast layout! Learn more

10-Day Weather Forecast

Advertisements
Track Severe Weather on mobile